Time;durP1;ratioP1;P1;durP2;ratioP2;P2;SDS_P1;SDS_P2;PMS_P1;PMS_P2;Temp;Humidity;BMP_temperature;BMP_pressure;BME280_temperature;BME280_humidity;BME280_pressure;Samples;Min_cycle;Max_cycle;Signal;HPM_P1;HPM_P2
2022/01/28 00:00:14;;;;;;;0.90;0.90;;;3.60;98.70;2.70;99404.00;;;;5115147;28;20225;-80
2022/01/28 00:05:28;;;;;;;1.13;1.13;;;3.60;98.40;2.70;99402.00;;;;5097406;28;20216;-79
2022/01/28 00:07:57;;;;;;;1.17;1.17;;;3.60;98.50;2.80;99386.00;;;;5114133;28;20523;-80
2022/01/28 00:10:27;;;;;;;2.67;2.50;;;3.60;98.10;2.70;99397.00;;;;5097505;28;20220;-80
2022/01/28 00:15:50;;;;;;;1.80;1.70;;;3.70;98.60;2.80;99421.00;;;;5114062;28;20240;-77
2022/01/28 00:38:05;;;;;;;0.87;0.87;;;3.90;97.40;3.10;99432.00;;;;5096648;28;20223;-79
2022/01/28 00:40:33;;;;;;;2.30;2.10;;;4.00;96.90;3.20;99442.00;;;;5096658;28;20509;-80
2022/01/28 00:43:00;;;;;;;1.00;1.00;;;4.00;96.80;3.20;99409.00;;;;5114396;28;20205;-80
2022/01/28 00:45:27;;;;;;;1.90;1.80;;;4.10;96.10;3.20;99458.00;;;;5114413;28;20208;-78
2022/01/28 00:47:56;;;;;;;2.87;2.00;;;4.00;96.30;3.10;99446.00;;;;5113425;28;20225;-82
2022/01/28 00:50:24;;;;;;;1.23;1.23;;;4.00;96.30;3.30;99456.00;;;;5114524;28;20223;-80
2022/01/28 00:52:51;;;;;;;1.10;1.10;;;4.10;96.50;3.20;99453.00;;;;5114525;28;20814;-82
2022/01/28 00:55:17;;;;;;;0.80;0.80;;;4.10;95.70;3.20;99449.00;;;;5114293;28;20598;-80
2022/01/28 00:57:44;;;;;;;1.13;1.13;;;4.00;95.80;3.10;99443.00;;;;5114355;28;20199;-80
2022/01/28 01:00:13;;;;;;;1.10;1.10;;;4.00;95.90;3.00;99447.00;;;;5114639;28;20256;-80
2022/01/28 01:02:40;;;;;;;1.50;1.17;;;3.90;96.20;3.00;99448.00;;;;5117810;28;20719;-78
2022/01/28 01:05:08;;;;;;;0.70;0.70;;;3.80;95.90;2.90;99458.00;;;;5118065;28;20200;-80
2022/01/28 01:07:37;;;;;;;1.20;1.20;;;3.80;96.10;2.80;99457.00;;;;5117953;28;20193;-81
2022/01/28 01:10:07;;;;;;;0.80;0.80;;;3.70;96.40;2.70;99455.00;;;;5118029;28;20221;-79
2022/01/28 01:12:39;;;;;;;1.20;1.20;;;3.70;96.70;2.80;99454.00;;;;5118029;28;20201;-79
2022/01/28 01:15:08;;;;;;;0.83;0.83;;;3.70;96.90;2.90;99456.00;;;;5117717;28;20252;-80
2022/01/28 01:17:38;;;;;;;0.80;0.80;;;3.70;96.70;2.80;99448.00;;;;5117712;28;20232;-79
2022/01/28 01:23:01;;;;;;;1.20;1.13;;;3.60;96.70;2.60;99453.00;;;;5113473;28;20229;-80
2022/01/28 01:25:28;;;;;;;2.40;1.10;;;3.50;97.00;2.60;99464.00;;;;5099568;28;20204;-80
2022/01/28 01:27:58;;;;;;;2.83;2.20;;;3.50;97.00;2.60;99460.00;;;;5117351;28;20228;-82
2022/01/28 01:30:27;;;;;;;3.47;1.60;;;3.40;97.40;2.60;99459.00;;;;5117335;28;20225;-80
2022/01/28 01:32:55;;;;;;;2.63;2.13;;;3.50;97.40;2.50;99446.00;;;;5117502;28;20196;-80
2022/01/28 01:35:22;;;;;;;0.90;0.90;;;3.40;97.60;2.50;99464.00;;;;5117378;28;20228;-80
2022/01/28 01:37:49;;;;;;;2.77;1.57;;;3.30;98.00;2.40;99455.00;;;;5099489;28;20208;-80
2022/01/28 01:40:24;;;;;;;0.90;0.90;;;3.40;97.80;2.60;99463.00;;;;5117350;28;20201;-81
2022/01/28 01:42:55;;;;;;;1.10;1.10;;;3.40;97.50;2.50;99466.00;;;;5117307;28;20219;-79
2022/01/28 01:53:32;;;;;;;1.23;1.23;;;3.30;97.10;2.30;99449.00;;;;5117252;28;20197;-81
2022/01/28 01:56:01;;;;;;;0.90;0.90;;;3.30;97.50;2.40;99493.00;;;;5099121;28;20208;-79
2022/01/28 01:58:31;;;;;;;1.67;1.50;;;3.30;97.40;2.40;99484.00;;;;5117120;28;20290;-80
2022/01/28 02:00:59;;;;;;;2.53;2.30;;;3.40;97.70;2.20;99500.00;;;;5116595;28;20329;-78
2022/01/28 02:03:26;;;;;;;2.13;2.03;;;3.20;97.80;2.30;99493.00;;;;5117011;28;20286;-80
2022/01/28 02:05:57;;;;;;;1.77;1.67;;;3.20;97.90;2.40;99500.00;;;;5116993;28;20756;-80
2022/01/28 02:08:25;;;;;;;0.80;0.80;;;3.30;98.20;2.40;99498.00;;;;5098886;28;20553;-82
2022/01/28 02:10:57;;;;;;;0.80;0.80;;;3.30;97.50;2.40;99506.00;;;;5116706;28;20224;-79
2022/01/28 02:13:29;;;;;;;1.70;1.60;;;3.30;97.20;2.30;99519.00;;;;5115447;28;20203;-80
2022/01/28 02:15:57;;;;;;;1.30;1.07;;;3.30;97.40;2.40;99517.00;;;;5116580;28;20775;-79
2022/01/28 02:18:25;;;;;;;1.10;1.10;;;3.30;97.60;2.20;99509.00;;;;5098683;28;20200;-82
2022/01/28 02:21:01;;;;;;;1.27;1.27;;;3.20;98.00;2.30;99512.00;;;;5116502;28;20220;-80
2022/01/28 02:23:28;;;;;;;1.40;1.30;;;3.20;97.80;2.30;99526.00;;;;5116478;28;20226;-81
2022/01/28 02:25:57;;;;;;;1.00;1.00;;;3.10;98.60;2.30;99523.00;;;;5116453;28;20593;-80
2022/01/28 02:28:25;;;;;;;1.13;1.13;;;3.20;97.90;2.40;99524.00;;;;5116448;28;20222;-80
2022/01/28 02:30:54;;;;;;;1.10;1.10;;;3.20;97.80;2.40;99523.00;;;;5098478;28;20231;-80
2022/01/28 02:33:24;;;;;;;1.23;0.97;;;3.30;97.80;2.40;99506.00;;;;5098436;28;20209;-81
2022/01/28 02:35:51;;;;;;;1.27;1.27;;;3.20;97.30;2.50;99539.00;;;;5098353;28;20209;-80
2022/01/28 02:38:21;;;;;;;0.97;0.90;;;3.30;97.60;2.50;99531.00;;;;5098425;28;20204;-80
2022/01/28 02:40:56;;;;;;;1.33;1.33;;;3.30;97.30;2.30;99530.00;;;;5098133;28;20228;-78
2022/01/28 02:43:33;;;;;;;1.17;1.17;;;3.20;96.80;2.30;99491.00;;;;5098270;28;20208;-81
2022/01/28 02:46:06;;;;;;;2.13;1.30;;;3.20;97.30;2.20;99535.00;;;;5116151;28;20196;-79
2022/01/28 02:48:34;;;;;;;1.30;1.30;;;3.10;97.40;2.10;99528.00;;;;5116029;28;20216;-79
2022/01/28 02:51:06;;;;;;;1.53;1.43;;;3.10;97.80;2.30;99534.00;;;;5115974;28;20242;-80
2022/01/28 02:53:42;;;;;;;1.93;1.40;;;3.20;97.70;2.30;99519.00;;;;5116081;28;20192;-79
2022/01/28 02:56:17;;;;;;;1.13;1.13;;;3.20;97.30;2.40;99529.00;;;;5116084;28;20202;-81
2022/01/28 02:58:44;;;;;;;1.13;1.13;;;3.30;97.30;2.40;99536.00;;;;5115934;28;20544;-80
2022/01/28 03:01:16;;;;;;;3.40;1.37;;;3.30;96.70;2.30;99517.00;;;;5115815;28;20221;-81
2022/01/28 03:03:45;;;;;;;1.70;1.60;;;3.30;96.70;2.40;99524.00;;;;5116088;28;20189;-80
2022/01/28 03:06:13;;;;;;;1.00;1.00;;;3.30;96.50;2.50;99523.00;;;;5098245;28;20216;-80
2022/01/28 03:08:47;;;;;;;2.13;2.03;;;3.40;96.80;2.40;99530.00;;;;5115718;28;20284;-80
2022/01/28 03:14:12;;;;;;;1.27;1.27;;;3.40;95.90;2.70;99510.00;;;;5111697;28;20220;-80
2022/01/28 03:16:54;;;;;;;0.90;0.90;;;3.50;95.40;2.70;99532.00;;;;5115675;28;20701;-80
2022/01/28 03:19:22;;;;;;;0.77;0.77;;;3.60;94.70;2.70;99546.00;;;;5115501;28;20706;-80
2022/01/28 03:21:55;;;;;;;0.93;0.93;;;3.50;95.10;2.60;99551.00;;;;5115517;28;20315;-80
2022/01/28 03:24:22;;;;;;;0.97;0.97;;;3.60;94.90;2.70;99562.00;;;;5115152;28;20205;-81
2022/01/28 03:26:52;;;;;;;1.00;1.00;;;3.60;94.90;2.80;99553.00;;;;5115518;28;20283;-80
2022/01/28 03:29:18;;;;;;;0.87;0.87;;;3.70;94.50;2.70;99550.00;;;;5115543;28;20225;-81
2022/01/28 03:31:45;;;;;;;1.23;1.23;;;3.60;94.70;2.80;99552.00;;;;5115587;28;20217;-80
2022/01/28 03:34:11;;;;;;;1.90;1.50;;;3.70;94.60;2.80;99546.00;;;;5115480;28;20725;-80
2022/01/28 03:36:38;;;;;;;0.70;0.70;;;3.60;95.10;2.90;99562.00;;;;5115533;28;20215;-78
2022/01/28 03:39:09;;;;;;;1.07;0.97;;;3.70;94.70;2.70;99544.00;;;;5115372;28;20283;-81
2022/01/28 03:41:37;;;;;;;1.30;1.30;;;3.60;95.10;2.80;99515.00;;;;5115236;28;20231;-81
2022/01/28 03:44:05;;;;;;;1.97;1.87;;;3.70;95.10;2.80;99551.00;;;;5115362;28;20205;-81
2022/01/28 03:46:31;;;;;;;1.10;1.10;;;3.60;94.90;2.70;99554.00;;;;5115395;28;20192;-80
2022/01/28 03:48:59;;;;;;;0.97;0.97;;;3.70;95.10;2.80;99564.00;;;;5115294;28;20193;-80
2022/01/28 03:51:25;;;;;;;0.70;0.70;;;3.60;95.30;2.90;99582.00;;;;5115239;28;20311;-80
2022/01/28 03:53:52;;;;;;;2.30;2.00;;;3.70;94.70;2.90;99571.00;;;;5115065;28;20217;-80
2022/01/28 03:56:18;;;;;;;1.27;1.27;;;3.80;94.00;2.80;99562.00;;;;5115049;28;20205;-80
2022/01/28 03:58:47;;;;;;;0.93;0.93;;;3.70;95.00;2.80;99568.00;;;;5114936;28;20338;-80
2022/01/28 04:01:17;;;;;;;3.20;1.57;;;3.70;95.40;2.80;99567.00;;;;5114878;28;20225;-80
2022/01/28 04:04:01;;;;;;;1.27;1.23;;;3.70;94.30;3.00;99571.00;;;;5115021;28;20565;-80
2022/01/28 04:11:59;;;;;;;1.20;1.20;;;3.70;94.20;2.70;99576.00;;;;5114923;28;20224;-80
2022/01/28 04:14:40;;;;;;;1.83;1.73;;;3.60;94.40;2.60;99577.00;;;;5114753;28;20288;-80
2022/01/28 04:17:19;;;;;;;1.17;1.17;;;3.50;95.10;2.50;99581.00;;;;5114953;28;20564;-80
2022/01/28 04:19:50;;;;;;;1.80;1.53;;;3.50;94.90;2.60;99579.00;;;;5114776;28;20223;-79
2022/01/28 04:22:19;;;;;;;1.40;1.30;;;3.50;95.00;2.60;99570.00;;;;5114743;28;20629;-80
2022/01/28 04:24:46;;;;;;;1.93;1.83;;;3.50;95.10;2.60;99588.00;;;;5114971;28;20207;-80
2022/01/28 04:27:13;;;;;;;1.50;1.47;;;3.50;94.90;2.70;99583.00;;;;5114753;28;20220;-80
2022/01/28 04:29:42;;;;;;;2.67;1.83;;;3.50;95.40;2.50;99593.00;;;;5113839;28;20224;-80
2022/01/28 04:32:10;;;;;;;2.67;1.73;;;3.40;95.50;2.50;99601.00;;;;5114654;28;20224;-80
2022/01/28 04:34:37;;;;;;;2.20;1.87;;;3.40;95.40;2.50;99595.00;;;;5113819;28;20222;-80
2022/01/28 04:37:15;;;;;;;2.27;2.13;;;3.40;95.60;2.40;99602.00;;;;5096310;28;20639;-80
2022/01/28 04:39:49;;;;;;;2.47;2.20;;;3.30;96.40;2.40;99595.00;;;;5114575;28;20500;-80
2022/01/28 04:42:37;;;;;;;3.03;2.73;;;3.30;95.80;2.40;99618.00;;;;5114527;28;20200;-80
2022/01/28 04:45:13;;;;;;;2.50;2.40;;;3.30;96.50;2.40;99622.00;;;;5096685;28;20303;-80
2022/01/28 04:47:46;;;;;;;1.20;1.20;;;3.30;95.80;2.50;99626.00;;;;5114339;28;20232;-80
2022/01/28 04:50:22;;;;;;;2.10;2.00;;;3.30;96.50;2.50;99638.00;;;;5114480;28;20282;-80
2022/01/28 04:55:48;;;;;;;1.17;1.17;;;3.20;96.60;2.30;99647.00;;;;5110240;28;20287;-79
2022/01/28 04:58:27;;;;;;;4.60;1.47;;;3.20;97.20;2.40;99647.00;;;;5114390;28;20188;-80
2022/01/28 05:01:12;;;;;;;1.90;1.80;;;3.20;97.60;2.30;99649.00;;;;5114078;28;20586;-80
2022/01/28 05:03:52;;;;;;;1.20;1.20;;;3.20;97.50;2.20;99652.00;;;;5115179;28;20209;-80
2022/01/28 05:25:49;;;;;;;5.20;2.70;;;3.10;98.70;2.30;99658.00;;;;5126054;28;20192;-80
2022/01/28 05:28:19;;;;;;;1.17;1.17;;;3.10;98.40;2.30;99634.00;;;;5107923;28;20201;-81
2022/01/28 05:30:46;;;;;;;1.83;1.57;;;3.10;98.30;2.20;99665.00;;;;5125343;28;20302;-80
2022/01/28 05:33:13;;;;;;;1.00;1.00;;;3.10;97.80;2.30;99674.00;;;;5118877;28;20241;-80
2022/01/28 05:35:40;;;;;;;1.93;1.20;;;3.20;97.50;2.20;99671.00;;;;5115033;28;20288;-80
2022/01/28 05:38:06;;;;;;;1.00;1.00;;;3.10;97.20;2.10;99663.00;;;;5114335;28;20214;-81
2022/01/28 05:40:35;;;;;;;2.00;1.90;;;3.10;97.20;2.20;99660.00;;;;5096187;28;20552;-80
2022/01/28 05:43:01;;;;;;;1.20;1.20;;;3.00;97.70;2.20;99673.00;;;;5114311;28;20212;-80
2022/01/28 05:45:30;;;;;;;1.20;1.20;;;3.00;97.70;2.20;99687.00;;;;5114258;28;20217;-80
2022/01/28 05:47:59;;;;;;;2.83;1.50;;;3.00;97.50;2.20;99673.00;;;;5118107;28;20240;-79
2022/01/28 05:50:28;;;;;;;0.70;0.70;;;3.00;97.50;2.10;99676.00;;;;5118461;28;20220;-80
2022/01/28 05:53:01;;;;;;;0.70;0.70;;;3.00;97.40;2.10;99674.00;;;;5100380;28;20578;-80
2022/01/28 05:55:27;;;;;;;0.90;0.90;;;3.00;97.70;2.00;99681.00;;;;5118675;28;20204;-80
2022/01/28 05:57:54;;;;;;;1.30;1.20;;;2.90;97.60;2.20;99690.00;;;;5117448;28;20211;-80
2022/01/28 06:00:21;;;;;;;1.53;1.47;;;3.00;98.60;2.10;99690.00;;;;5126371;28;20270;-80
2022/01/28 06:02:47;;;;;;;1.07;1.07;;;3.00;97.00;2.10;99704.00;;;;5130601;28;20205;-80
2022/01/28 06:05:17;;;;;;;3.53;2.27;;;3.00;97.10;2.10;99696.00;;;;5129223;28;20200;-80
2022/01/28 06:07:44;;;;;;;1.67;1.57;;;3.00;97.20;2.10;99701.00;;;;5110778;28;20232;-80
2022/01/28 06:10:15;;;;;;;2.07;1.77;;;2.90;97.90;2.20;99671.00;;;;5128413;28;20562;-80
2022/01/28 06:12:42;;;;;;;1.27;1.17;;;3.00;97.60;2.20;99678.00;;;;5128045;28;20219;-79
2022/01/28 06:15:10;;;;;;;1.33;1.30;;;3.00;97.00;2.30;99722.00;;;;5122533;28;20561;-80
2022/01/28 06:17:37;;;;;;;1.20;1.20;;;3.10;96.70;2.20;99734.00;;;;5099457;28;20204;-80
2022/01/28 06:20:08;;;;;;;1.73;1.63;;;3.10;96.50;2.20;99733.00;;;;5116708;28;20326;-79
2022/01/28 06:22:38;;;;;;;1.40;1.30;;;3.10;96.70;2.20;99746.00;;;;5117065;28;20272;-79
2022/01/28 06:25:07;;;;;;;2.73;1.27;;;3.10;96.80;2.30;99753.00;;;;5116703;28;20208;-80
2022/01/28 06:27:34;;;;;;;2.47;1.50;;;3.10;96.90;2.20;99755.00;;;;5116677;28;20314;-79
2022/01/28 06:30:06;;;;;;;1.43;1.33;;;3.20;97.20;2.10;99767.00;;;;5098619;28;20234;-80
2022/01/28 06:32:33;;;;;;;1.57;1.47;;;3.10;97.30;2.10;99781.00;;;;5098603;28;20204;-80
2022/01/28 06:35:07;;;;;;;0.87;0.87;;;3.10;97.60;2.00;99777.00;;;;5098582;28;20646;-80
2022/01/28 06:37:39;;;;;;;1.00;1.00;;;2.90;98.30;2.10;99746.00;;;;5116640;28;20176;-80
2022/01/28 06:40:13;;;;;;;2.63;1.60;;;3.00;98.30;2.10;99781.00;;;;5116383;28;20232;-79
2022/01/28 06:42:40;;;;;;;1.97;1.43;;;3.00;98.00;2.10;99781.00;;;;5116449;28;20209;-80
2022/01/28 06:45:08;;;;;;;2.23;1.87;;;3.00;98.30;2.10;99755.00;;;;5116524;28;20288;-80
2022/01/28 06:47:36;;;;;;;3.53;1.67;;;3.00;97.90;2.20;99781.00;;;;5116234;28;20228;-78
2022/01/28 06:50:04;;;;;;;1.27;1.20;;;3.00;98.30;2.10;99784.00;;;;5116118;28;20303;-79
2022/01/28 06:52:32;;;;;;;2.10;1.90;;;3.00;98.00;2.00;99769.00;;;;5116250;28;20212;-79
2022/01/28 06:55:00;;;;;;;1.07;1.07;;;3.00;98.50;2.00;99757.00;;;;5116151;28;20211;-80
2022/01/28 06:57:28;;;;;;;2.27;2.07;;;2.90;99.10;2.10;99769.00;;;;5115987;28;20295;-80
2022/01/28 06:59:55;;;;;;;1.20;1.20;;;3.00;99.20;2.20;99775.00;;;;5115497;28;20223;-80
2022/01/28 07:02:21;;;;;;;2.13;1.80;;;3.00;99.00;2.20;99783.00;;;;5116166;28;20221;-80
2022/01/28 07:04:48;;;;;;;5.80;2.00;;;3.00;99.10;2.20;99791.00;;;;5115972;28;20210;-79
2022/01/28 07:07:17;;;;;;;1.60;1.50;;;3.00;98.70;2.30;99788.00;;;;5115940;28;20702;-81
2022/01/28 07:09:45;;;;;;;1.30;1.20;;;3.10;98.80;2.30;99789.00;;;;5116061;28;20221;-81
2022/01/28 07:12:15;;;;;;;2.80;2.43;;;3.20;97.90;2.30;99796.00;;;;5116256;28;20546;-80
2022/01/28 07:14:45;;;;;;;1.17;1.17;;;3.10;97.90;2.40;99797.00;;;;5116086;28;20230;-80
2022/01/28 07:17:11;;;;;;;1.57;1.50;;;3.30;97.40;2.50;99766.00;;;;5115877;28;20204;-82
2022/01/28 07:19:38;;;;;;;3.50;2.73;;;3.30;96.60;2.50;99759.00;;;;5115717;28;20263;-79
2022/01/28 07:22:05;;;;;;;2.23;2.10;;;3.30;96.80;2.50;99809.00;;;;5115757;28;20216;-80
2022/01/28 07:24:32;;;;;;;1.00;1.00;;;3.30;97.00;2.50;99807.00;;;;5115713;28;20216;-80
2022/01/28 07:27:01;;;;;;;0.70;0.70;;;3.30;96.40;2.60;99802.00;;;;5115591;28;20232;-80
2022/01/28 07:29:30;;;;;;;2.87;2.03;;;3.50;97.70;2.50;99804.00;;;;5097986;28;20219;-80
2022/01/28 07:31:58;;;;;;;0.90;0.90;;;3.50;96.20;2.60;99796.00;;;;5115535;28;20324;-79
2022/01/28 07:34:24;;;;;;;1.07;1.07;;;3.50;96.20;2.60;99818.00;;;;5115574;28;20280;-79
2022/01/28 07:36:52;;;;;;;1.37;1.37;;;3.50;95.70;2.80;99773.00;;;;5115557;28;20236;-82
2022/01/28 07:39:18;;;;;;;1.97;1.87;;;3.60;95.20;2.80;99818.00;;;;5115347;28;20216;-79
2022/01/28 07:41:45;;;;;;;1.30;1.30;;;3.60;95.00;2.60;99822.00;;;;5115540;28;20193;-79
2022/01/28 07:44:12;;;;;;;1.27;1.27;;;3.50;95.10;2.70;99820.00;;;;5115308;28;20282;-77
2022/01/28 07:46:38;;;;;;;3.23;2.17;;;3.50;95.30;2.70;99824.00;;;;5115370;28;20231;-78
2022/01/28 07:49:06;;;;;;;2.00;1.77;;;3.60;95.00;2.80;99823.00;;;;5115420;28;20197;-79
2022/01/28 07:51:35;;;;;;;2.40;1.77;;;3.60;94.70;2.80;99817.00;;;;5114963;28;20344;-76
2022/01/28 07:54:03;;;;;;;0.80;0.80;;;3.60;94.40;2.70;99821.00;;;;5115190;28;20194;-75
2022/01/28 07:56:30;;;;;;;1.90;1.80;;;3.60;94.70;2.80;99819.00;;;;5115227;28;20286;-77
2022/01/28 07:58:56;;;;;;;0.80;0.80;;;3.70;94.90;2.80;99828.00;;;;5115126;28;20209;-77
2022/01/28 08:01:23;;;;;;;1.20;1.10;;;3.60;94.30;2.70;99832.00;;;;5115387;28;20205;-77
2022/01/28 08:03:49;;;;;;;1.43;1.10;;;3.60;94.40;2.90;99839.00;;;;5115224;28;20226;-76
2022/01/28 08:06:17;;;;;;;1.87;1.77;;;3.70;94.00;3.00;99821.00;;;;5115086;28;20293;-76
2022/01/28 08:08:45;;;;;;;1.63;1.53;;;3.70;93.60;3.00;99839.00;;;;5097346;28;20581;-78
2022/01/28 08:11:13;;;;;;;1.33;1.23;;;3.80;93.00;3.00;99839.00;;;;5114868;28;20302;-78
2022/01/28 08:13:39;;;;;;;1.27;1.27;;;3.80;93.10;3.10;99850.00;;;;5115142;28;20232;-78
2022/01/28 08:16:08;;;;;;;1.27;1.23;;;3.90;93.20;3.20;99858.00;;;;5097377;28;20282;-77
2022/01/28 08:18:35;;;;;;;1.23;1.23;;;3.90;92.40;3.30;99871.00;;;;5114901;28;20209;-77
2022/01/28 08:21:04;;;;;;;0.87;0.87;;;4.10;91.40;3.30;99863.00;;;;5115165;28;20539;-77
2022/01/28 08:23:32;;;;;;;0.80;0.80;;;4.10;91.60;3.40;99869.00;;;;5114893;28;20221;-77
2022/01/28 08:25:58;;;;;;;2.30;1.77;;;4.10;91.00;3.40;99868.00;;;;5115064;28;20193;-76
2022/01/28 08:28:24;;;;;;;1.10;1.10;;;4.20;90.30;3.40;99874.00;;;;5096944;28;20554;-77
2022/01/28 08:30:51;;;;;;;2.13;1.30;;;4.20;91.90;3.50;99881.00;;;;5096860;28;20573;-77
2022/01/28 08:33:17;;;;;;;1.37;1.27;;;4.30;91.30;3.50;99879.00;;;;5114663;28;20193;-77
2022/01/28 08:35:51;;;;;;;0.93;0.93;;;4.30;89.00;3.50;99871.00;;;;5114552;28;20224;-76
2022/01/28 08:38:24;;;;;;;1.77;0.87;;;4.30;89.10;3.60;99881.00;;;;5114592;28;20211;-78
2022/01/28 08:40:53;;;;;;;1.27;1.10;;;4.30;89.30;3.60;99878.00;;;;5114596;28;20361;-78
2022/01/28 08:43:21;;;;;;;0.60;0.60;;;4.40;89.40;3.70;99891.00;;;;5114511;28;20208;-78
2022/01/28 08:45:48;;;;;;;1.60;1.50;;;4.40;88.90;3.80;99889.00;;;;5114594;28;20260;-77
2022/01/28 08:48:15;;;;;;;1.20;1.10;;;4.50;88.30;3.80;99900.00;;;;5114638;28;20204;-76
2022/01/28 08:50:41;;;;;;;0.70;0.70;;;4.60;87.30;3.90;99889.00;;;;5114475;28;20316;-76
2022/01/28 08:53:08;;;;;;;0.80;0.80;;;4.70;87.80;3.90;99843.00;;;;5114457;28;20325;-78
2022/01/28 08:55:35;;;;;;;1.17;1.17;;;4.70;86.80;3.90;99889.00;;;;5114416;28;20221;-77
2022/01/28 08:58:03;;;;;;;1.27;1.27;;;4.70;86.50;3.90;99902.00;;;;5114627;28;20281;-77
2022/01/28 09:00:29;;;;;;;1.10;1.10;;;4.70;86.20;3.90;99897.00;;;;5114049;28;20559;-76
2022/01/28 09:02:56;;;;;;;1.23;1.23;;;4.80;85.80;4.00;99918.00;;;;5114297;28;20238;-77
2022/01/28 09:05:25;;;;;;;0.93;0.93;;;4.80;83.80;4.00;99890.00;;;;5114498;28;20225;-77
2022/01/28 09:07:51;;;;;;;1.43;1.33;;;4.80;84.60;4.20;99897.00;;;;5114320;28;20202;-75
2022/01/28 09:10:25;;;;;;;1.10;1.10;;;4.90;84.90;4.20;99904.00;;;;5114235;28;20225;-78
2022/01/28 09:13:10;;;;;;;1.20;1.20;;;4.90;85.40;4.00;99898.00;;;;5114327;28;20186;-78
2022/01/28 09:15:41;;;;;;;0.60;0.60;;;4.90;84.70;4.00;99889.00;;;;5114111;28;20718;-78
2022/01/28 09:18:09;;;;;;;0.90;0.90;;;4.90;84.30;4.10;99896.00;;;;5113923;28;20221;-77
2022/01/28 09:20:37;;;;;;;0.80;0.80;;;4.90;84.50;4.30;99895.00;;;;5114227;28;20194;-78
2022/01/28 09:23:05;;;;;;;7.83;1.57;;;5.00;82.90;4.40;99898.00;;;;5117156;28;20217;-78
2022/01/28 09:25:33;;;;;;;1.00;1.00;;;5.20;81.70;4.50;99893.00;;;;5117818;28;20227;-77
2022/01/28 09:28:01;;;;;;;2.33;1.73;;;5.20;82.40;4.50;99901.00;;;;5117559;28;20193;-78
2022/01/28 09:30:30;;;;;;;0.60;0.60;;;5.20;80.30;4.50;99878.00;;;;5117473;28;20240;-78
2022/01/28 09:32:58;;;;;;;0.80;0.80;;;5.30;82.00;4.60;99918.00;;;;5117552;28;20232;-79
2022/01/28 09:35:25;;;;;;;1.60;1.50;;;5.40;79.10;4.50;99916.00;;;;5117658;28;20216;-79
2022/01/28 09:37:53;;;;;;;2.87;1.23;;;5.30;80.70;4.70;99921.00;;;;5117350;28;20208;-79
2022/01/28 09:40:21;;;;;;;0.90;0.90;;;5.50;82.20;4.70;99913.00;;;;5117435;28;20201;-79
2022/01/28 09:42:48;;;;;;;0.70;0.70;;;5.50;81.20;4.80;99920.00;;;;5117287;28;20232;-77
2022/01/28 09:45:16;;;;;;;0.80;0.80;;;5.50;80.60;4.80;99919.00;;;;5099350;28;20629;-78
2022/01/28 09:47:46;;;;;;;1.67;1.57;;;5.60;80.20;4.90;99915.00;;;;5117369;28;20331;-78
2022/01/28 09:50:14;;;;;;;6.27;2.20;;;5.70;79.70;4.80;99906.00;;;;5117125;28;20226;-78
2022/01/28 09:52:41;;;;;;;1.30;1.30;;;5.60;80.30;5.00;99912.00;;;;5117434;28;20194;-77
2022/01/28 09:55:08;;;;;;;1.03;1.03;;;5.70;80.00;4.90;99928.00;;;;5117203;28;20527;-79
2022/01/28 09:57:35;;;;;;;1.10;1.10;;;5.60;80.70;5.00;99923.00;;;;5099179;28;20221;-77
2022/01/28 10:00:04;;;;;;;3.23;2.73;;;5.70;80.50;5.10;99918.00;;;;5117118;28;20216;-76
2022/01/28 10:02:51;;;;;;;1.37;1.27;;;5.70;80.90;4.90;99937.00;;;;5099346;28;20586;-77
2022/01/28 10:05:24;;;;;;;1.63;1.53;;;5.70;79.10;5.00;99946.00;;;;5117194;28;20288;-78
2022/01/28 10:08:08;;;;;;;1.83;1.73;;;5.70;79.80;4.90;99936.00;;;;5099267;28;20408;-78
2022/01/28 10:10:54;;;;;;;0.97;0.97;;;5.70;80.20;5.30;99939.00;;;;5117138;28;20234;-78
2022/01/28 10:13:27;;;;;;;6.33;1.53;;;6.00;80.30;5.00;99931.00;;;;5117184;28;20190;-75
2022/01/28 10:16:05;;;;;;;1.60;1.33;;;5.90;78.50;5.10;99934.00;;;;5117169;28;20205;-74
2022/01/28 10:18:49;;;;;;;1.40;1.30;;;5.90;78.80;5.10;99934.00;;;;5117464;28;20591;-74
2022/01/28 10:21:27;;;;;;;1.10;1.10;;;5.90;79.20;5.20;99927.00;;;;5116733;28;20214;-75
2022/01/28 10:24:17;;;;;;;1.10;1.10;;;6.00;78.10;5.10;99919.00;;;;5116594;28;20201;-75
2022/01/28 10:26:47;;;;;;;1.00;1.00;;;5.90;77.60;5.10;99922.00;;;;5116547;28;20218;-77
2022/01/28 10:29:19;;;;;;;0.90;0.90;;;5.90;78.30;5.30;99919.00;;;;5116565;28;20202;-76
2022/01/28 10:31:56;;;;;;;1.27;1.03;;;6.00;77.70;5.40;99914.00;;;;5116707;28;20225;-76
2022/01/28 10:34:30;;;;;;;0.77;0.77;;;6.10;75.90;5.30;99916.00;;;;5115422;28;20186;-75
2022/01/28 10:37:15;;;;;;;0.80;0.80;;;6.10;75.00;5.20;99913.00;;;;5116618;28;20205;-73
2022/01/28 10:39:49;;;;;;;1.40;1.30;;;6.00;75.50;5.40;99912.00;;;;5115308;28;20252;-75
2022/01/28 10:42:18;;;;;;;0.80;0.80;;;6.10;76.10;5.50;99908.00;;;;5098572;28;20213;-74
2022/01/28 10:44:58;;;;;;;1.10;1.00;;;6.20;74.90;5.40;99913.00;;;;5116076;28;20308;-73
2022/01/28 10:47:32;;;;;;;0.80;0.80;;;6.20;76.10;5.40;99917.00;;;;5116349;28;20612;-73
2022/01/28 10:49:59;;;;;;;1.23;1.17;;;6.10;73.10;5.10;99927.00;;;;5116165;28;20194;-74
2022/01/28 10:52:33;;;;;;;1.27;1.27;;;6.10;75.10;5.50;99920.00;;;;5116051;28;20224;-73
2022/01/28 10:55:00;;;;;;;0.87;0.87;;;6.20;75.20;5.40;99925.00;;;;5116186;28;20190;-72
2022/01/28 10:57:30;;;;;;;0.63;0.63;;;6.20;74.90;5.40;99924.00;;;;5115963;28;20290;-73
2022/01/28 10:59:58;;;;;;;0.83;0.83;;;6.30;73.70;5.50;99912.00;;;;5116233;28;20239;-73
2022/01/28 11:02:27;;;;;;;0.67;0.67;;;6.20;74.30;5.30;99924.00;;;;5116100;28;20198;-75
2022/01/28 11:04:57;;;;;;;0.90;0.90;;;6.10;74.80;5.20;99927.00;;;;5115713;28;20230;-75
2022/01/28 11:07:28;;;;;;;1.27;1.27;;;6.10;74.40;5.30;99941.00;;;;5115699;28;20195;-75
2022/01/28 11:09:55;;;;;;;0.90;0.90;;;6.10;74.30;5.10;99932.00;;;;5115848;28;20298;-76
2022/01/28 11:12:23;;;;;;;0.70;0.70;;;6.10;74.00;5.30;99935.00;;;;5115923;28;20632;-75
2022/01/28 11:14:51;;;;;;;1.00;1.00;;;6.10;74.90;5.60;99936.00;;;;5115933;28;20795;-76
2022/01/28 11:17:19;;;;;;;0.67;0.67;;;6.20;74.10;5.70;99935.00;;;;5115656;28;20232;-77
2022/01/28 11:19:50;;;;;;;1.17;0.90;;;6.40;73.40;5.70;99935.00;;;;5098041;28;20205;-76
2022/01/28 11:22:50;;;;;;;1.17;1.17;;;6.40;73.90;5.80;99933.00;;;;5115567;28;20209;-74
2022/01/28 11:25:43;;;;;;;1.27;1.17;;;6.50;70.60;5.50;99939.00;;;;5097833;28;20210;-76
2022/01/28 11:28:11;;;;;;;1.70;1.10;;;;;5.90;99931.00;;;;5115633;28;20220;-78
2022/01/28 11:30:47;;;;;;;0.80;0.80;;;6.60;71.20;6.00;99933.00;;;;5115488;28;20323;-80
2022/01/28 11:33:15;;;;;;;1.00;1.00;;;6.70;71.30;5.80;99908.00;;;;5115671;28;20190;-78
2022/01/28 11:35:59;;;;;;;1.30;1.30;;;6.60;71.50;5.70;99937.00;;;;5115673;28;20225;-81
2022/01/28 11:38:45;;;;;;;1.10;1.10;;;6.60;71.10;5.70;99909.00;;;;5115938;28;20289;-77
2022/01/28 11:41:24;;;;;;;1.07;1.03;;;6.50;71.40;5.90;99918.00;;;;5098981;28;20268;-77
2022/01/28 11:43:53;;;;;;;1.50;1.10;;;6.60;71.60;6.10;99919.00;;;;5115643;28;20209;-78
2022/01/28 11:46:25;;;;;;;1.03;1.03;;;6.70;71.80;6.20;99937.00;;;;5115615;28;20206;-76
2022/01/28 11:49:24;;;;;;;1.70;1.60;;;6.90;69.90;6.00;99927.00;;;;5115611;28;20221;-79
2022/01/28 11:51:52;;;;;;;0.97;0.97;;;6.80;68.70;6.00;99931.00;;;;5115378;28;20318;-80
2022/01/28 11:54:35;;;;;;;0.67;0.67;;;6.80;68.20;5.90;99924.00;;;;5114424;28;20227;-78
2022/01/28 11:57:17;;;;;;;1.83;1.73;;;6.60;66.20;5.60;99932.00;;;;5115398;28;20259;-78
2022/01/28 11:59:46;;;;;;;0.97;0.97;;;6.50;66.70;5.70;99941.00;;;;5097374;28;20194;-78
2022/01/28 12:02:20;;;;;;;0.77;0.77;;;6.50;68.40;5.70;99934.00;;;;5097732;28;20545;-76
2022/01/28 12:04:47;;;;;;;8.80;2.43;;;6.40;69.80;5.80;99914.00;;;;5115402;28;20216;-78
2022/01/28 12:07:24;;;;;;;1.40;1.30;;;6.60;70.40;6.30;99908.00;;;;5115377;28;20671;-78
2022/01/28 12:09:53;;;;;;;2.33;1.47;;;6.90;69.00;6.80;99926.00;;;;5115374;28;20210;-78
2022/01/28 12:12:59;;;;;;;2.70;2.50;;;7.30;67.70;7.00;99933.00;;;;5115152;28;20659;-78
2022/01/28 12:15:31;;;;;;;1.97;1.87;;;7.50;67.20;6.80;99910.00;;;;5115366;28;20635;-79
2022/01/28 12:18:10;;;;;;;1.33;1.23;;;7.50;63.10;6.70;99916.00;;;;5115535;28;20209;-77
2022/01/28 12:20:47;;;;;;;1.07;1.07;;;7.40;63.90;6.90;99914.00;;;;5115520;28;20292;-77
2022/01/28 12:23:35;;;;;;;1.00;1.00;;;7.70;61.50;7.00;99917.00;;;;5115186;28;20273;-76
2022/01/28 12:26:02;;;;;;;1.70;1.60;;;7.70;61.50;7.20;99910.00;;;;5116673;28;20233;-75
2022/01/28 12:28:53;;;;;;;1.17;1.17;;;7.80;60.00;7.10;99889.00;;;;5115469;28;20272;-77
2022/01/28 12:31:25;;;;;;;0.70;0.70;;;7.80;59.40;7.50;99918.00;;;;5115810;28;20217;-76